Archival Weather

Chicago O'Hare International

Chicago, Illinois (KORD)

Report from: Wednesday, August 23, 2023 5:51 AM CDT
Current time: Thursday, July 18, 2024 10:46 PM CDT

Current weather – Weather history – Daily summaries
Weather forecast

Present weatherMist
Temperature25.0°C (77.0°F)
Dew point23.9°C (75.0°F)
Winds 8 kts (4.1 m/s, 9.2 mph) South-Southwest (210°)
Visibility6 mi. (9.7 km)
Clouds Few clouds 14,000 ft. (4,267 m)
Altimeter30.01 in.Hg (1016 mB)
Relative humidity94 %
Density altitude1,472 ft. (449 m)
Sea-level pressure101.6 kPa (1016 mB, 29.99 in.Hg)
Remarks Automated weather observing station with precipitation discriminator
Flight conditions Visual Meteorological Conditions
Raw dataKORD 231051Z 21008KT 6SM BR FEW140 25/24 A3001 RMK AO2 SLP157 T02500239
An error has occurred. This application may no longer respond until reloaded. Reload 🗙